Time,TemperatureF,DewpointF,PressureIn,WindDirection,WindDirectionDegrees,WindSpeedMPH,WindSpeedGustMPH,Humidity,HourlyPrecipIn,Conditions,Clouds,dailyrainin,SolarRadiationWatts/m^2,SoftwareType,DateUTC
2013-06-13 00:02:00,71.0,35.0,-100.00,East,79,1.0,8.0,27,0.00,,,-99.99,1.000000,,2013-06-13 06:02:00,
2013-06-13 00:11:00,71.0,35.0,-100.00,East,79,1.0,8.0,27,0.00,,,-99.99,1.000000,,2013-06-13 06:11:00,
2013-06-13 00:52:00,66.0,46.0,-100.00,SSE,154,2.0,8.0,49,0.00,,,0.00,1.000000,,2013-06-13 06:52:00,
2013-06-13 01:01:00,66.0,46.0,-100.00,SSE,154,2.0,8.0,49,0.00,,,0.00,1.000000,,2013-06-13 07:01:00,
2013-06-13 01:11:00,66.0,46.0,-100.00,SSE,154,2.0,8.0,49,0.00,,,0.00,1.000000,,2013-06-13 07:11:00,
2013-06-13 01:22:00,66.0,46.0,-100.00,SSE,154,2.0,8.0,49,0.00,,,0.00,1.000000,,2013-06-13 07:22:00,
2013-06-13 01:52:00,61.0,50.0,-100.00,WNW,294,1.0,6.0,66,0.00,,,0.00,1.000000,,2013-06-13 07:52:00,
2013-06-13 02:01:00,61.0,50.0,-100.00,WNW,294,1.0,6.0,66,0.00,,,0.00,1.000000,,2013-06-13 08:01:00,
2013-06-13 02:11:00,61.0,50.0,-100.00,WNW,294,1.0,6.0,66,0.00,,,0.00,1.000000,,2013-06-13 08:11:00,
2013-06-13 02:22:00,61.0,50.0,-100.00,WNW,294,1.0,6.0,66,0.00,,,0.00,1.000000,,2013-06-13 08:22:00,
2013-06-13 02:52:00,58.0,50.0,-100.00,East,91,0.0,4.0,76,0.00,,,0.00,1.000000,,2013-06-13 08:52:00,
2013-06-13 03:02:00,58.0,50.0,-100.00,East,91,0.0,4.0,76,0.00,,,0.00,1.000000,,2013-06-13 09:02:00,
2013-06-13 03:11:00,58.0,50.0,-100.00,East,91,0.0,4.0,76,0.00,,,0.00,1.000000,,2013-06-13 09:11:00,
2013-06-13 03:22:00,58.0,50.0,-100.00,East,91,0.0,4.0,76,0.00,,,0.00,1.000000,,2013-06-13 09:22:00,
2013-06-13 03:52:00,56.0,49.0,-100.00,West,272,3.0,6.0,76,0.00,,,0.00,1.000000,,2013-06-13 09:52:00,
2013-06-13 04:01:00,56.0,49.0,-100.00,West,272,3.0,6.0,76,0.00,,,0.00,1.000000,,2013-06-13 10:01:00,
2013-06-13 04:11:00,56.0,49.0,-100.00,West,272,3.0,6.0,76,0.00,,,0.00,1.000000,,2013-06-13 10:11:00,
2013-06-13 04:22:00,56.0,49.0,-100.00,West,272,3.0,6.0,76,0.00,,,0.00,1.000000,,2013-06-13 10:22:00,
2013-06-13 04:53:00,55.0,48.0,-100.00,East,86,1.0,7.0,77,0.00,,,0.00,1.000000,,2013-06-13 10:53:00,
2013-06-13 05:02:00,55.0,48.0,-100.00,East,86,1.0,7.0,77,0.00,,,0.00,1.000000,,2013-06-13 11:02:00,
2013-06-13 05:11:00,55.0,48.0,-100.00,East,86,1.0,7.0,77,0.00,,,0.00,1.000000,,2013-06-13 11:11:00,
2013-06-13 05:23:00,55.0,48.0,-100.00,East,86,1.0,7.0,77,0.00,,,0.00,1.000000,,2013-06-13 11:23:00,
2013-06-13 05:52:00,52.0,48.0,-100.00,WNW,286,3.0,5.0,85,0.00,,,0.00,1.000000,,2013-06-13 11:52:00,
2013-06-13 06:01:00,52.0,48.0,-100.00,WNW,286,3.0,5.0,85,0.00,,,0.00,1.000000,,2013-06-13 12:01:00,
2013-06-13 06:11:00,52.0,48.0,-100.00,WNW,286,3.0,5.0,85,0.00,,,0.00,1.000000,,2013-06-13 12:11:00,
2013-06-13 06:22:00,52.0,48.0,-100.00,WNW,286,3.0,5.0,85,0.00,,,0.00,1.000000,,2013-06-13 12:22:00,
2013-06-13 06:52:00,51.0,46.0,-100.00,West,264,3.0,6.0,84,0.00,,,0.00,5.000000,,2013-06-13 12:52:00,
2013-06-13 07:01:00,51.0,46.0,-100.00,West,264,3.0,6.0,84,0.00,,,0.00,5.000000,,2013-06-13 13:01:00,
2013-06-13 07:11:00,51.0,46.0,-100.00,West,264,3.0,6.0,84,0.00,,,0.00,5.000000,,2013-06-13 13:11:00,
2013-06-13 07:21:00,51.0,46.0,-100.00,West,264,3.0,6.0,84,0.00,,,0.00,5.000000,,2013-06-13 13:21:00,
2013-06-13 07:53:00,53.0,51.0,-100.00,SSE,160,0.0,4.0,92,0.00,,,0.00,64.000000,,2013-06-13 13:53:00,
2013-06-13 08:02:00,53.0,51.0,-100.00,SSE,160,0.0,4.0,92,0.00,,,0.00,64.000000,,2013-06-13 14:02:00,
2013-06-13 08:11:00,53.0,51.0,-100.00,SSE,160,0.0,4.0,92,0.00,,,0.00,64.000000,,2013-06-13 14:11:00,
2013-06-13 08:22:00,53.0,51.0,-100.00,SSE,160,0.0,4.0,92,0.00,,,0.00,64.000000,,2013-06-13 14:22:00,
2013-06-13 08:53:00,54.0,51.0,-100.00,East,86,1.0,4.0,90,0.00,,,0.00,98.000000,,2013-06-13 14:53:00,
2013-06-13 09:01:00,54.0,51.0,-100.00,East,86,1.0,4.0,90,0.00,,,0.00,98.000000,,2013-06-13 15:01:00,
2013-06-13 09:12:00,54.0,51.0,-100.00,East,86,1.0,4.0,90,0.00,,,0.00,98.000000,,2013-06-13 15:12:00,
2013-06-13 09:22:00,54.0,51.0,-100.00,East,86,1.0,4.0,90,0.00,,,0.00,98.000000,,2013-06-13 15:22:00,
2013-06-13 09:53:00,59.0,51.0,-100.00,East,96,3.0,6.0,76,0.00,,,0.00,234.000000,,2013-06-13 15:53:00,
2013-06-13 10:02:00,59.0,51.0,-100.00,East,96,3.0,6.0,76,0.00,,,0.00,234.000000,,2013-06-13 16:02:00,
2013-06-13 10:12:00,59.0,51.0,-100.00,East,96,3.0,6.0,76,0.00,,,0.00,234.000000,,2013-06-13 16:12:00,
2013-06-13 10:22:00,59.0,51.0,-100.00,East,96,3.0,6.0,76,0.00,,,0.00,234.000000,,2013-06-13 16:22:00,
2013-06-13 10:53:00,63.0,53.0,-100.00,ESE,118,4.0,7.0,70,0.00,,,0.00,481.000000,,2013-06-13 16:53:00,
2013-06-13 11:02:00,63.0,53.0,-100.00,ESE,118,4.0,7.0,70,0.00,,,0.00,481.000000,,2013-06-13 17:02:00,
2013-06-13 11:11:00,63.0,53.0,-100.00,ESE,118,4.0,7.0,70,0.00,,,0.00,481.000000,,2013-06-13 17:11:00,
2013-06-13 11:24:00,63.0,53.0,-100.00,ESE,118,4.0,7.0,70,0.00,,,0.00,481.000000,,2013-06-13 17:24:00,
2013-06-13 11:53:00,68.0,54.0,-100.00,ESE,109,4.0,9.0,60,0.00,,,0.00,777.000000,,2013-06-13 17:53:00,
2013-06-13 12:02:00,68.0,54.0,-100.00,ESE,109,4.0,9.0,60,0.00,,,0.00,777.000000,,2013-06-13 18:02:00,
2013-06-13 12:11:00,68.0,54.0,-100.00,ESE,109,4.0,9.0,60,0.00,,,0.00,777.000000,,2013-06-13 18:11:00,
2013-06-13 12:22:00,68.0,54.0,-100.00,ESE,109,4.0,9.0,60,0.00,,,0.00,777.000000,,2013-06-13 18:22:00,
2013-06-13 12:52:00,69.0,54.0,-100.00,ESE,123,4.0,9.0,59,0.00,,,0.00,696.000000,,2013-06-13 18:52:00,
2013-06-13 13:01:00,69.0,54.0,-100.00,ESE,123,4.0,9.0,59,0.00,,,0.00,696.000000,,2013-06-13 19:01:00,
2013-06-13 13:11:00,69.0,54.0,-100.00,ESE,123,4.0,9.0,59,0.00,,,0.00,696.000000,,2013-06-13 19:11:00,
2013-06-13 13:22:00,69.0,54.0,-100.00,ESE,123,4.0,9.0,59,0.00,,,0.00,696.000000,,2013-06-13 19:22:00,
2013-06-13 13:53:00,71.0,53.0,-100.00,ESE,104,5.0,9.0,53,0.00,,,0.00,588.000000,,2013-06-13 19:53:00,
2013-06-13 14:01:00,71.0,53.0,-100.00,ESE,104,5.0,9.0,53,0.00,,,0.00,588.000000,,2013-06-13 20:01:00,
2013-06-13 14:11:00,71.0,53.0,-100.00,ESE,104,5.0,9.0,53,0.00,,,0.00,588.000000,,2013-06-13 20:11:00,
2013-06-13 14:22:00,71.0,53.0,-100.00,ESE,104,5.0,9.0,53,0.00,,,0.00,588.000000,,2013-06-13 20:22:00,
2013-06-13 14:53:00,70.0,54.0,-100.00,East,97,6.0,10.0,56,0.00,,,0.00,674.000000,,2013-06-13 20:53:00,
2013-06-13 15:02:00,70.0,54.0,-100.00,East,97,6.0,10.0,56,0.00,,,0.00,674.000000,,2013-06-13 21:02:00,
2013-06-13 15:11:00,70.0,54.0,-100.00,East,97,6.0,10.0,56,0.00,,,0.00,674.000000,,2013-06-13 21:11:00,
2013-06-13 15:22:00,70.0,54.0,-100.00,East,97,6.0,10.0,56,0.00,,,0.00,674.000000,,2013-06-13 21:22:00,
2013-06-13 15:52:00,76.0,55.0,-100.00,East,97,6.0,8.0,49,0.00,,,0.00,650.000000,,2013-06-13 21:52:00,
2013-06-13 16:02:00,76.0,55.0,-100.00,East,97,6.0,8.0,49,0.00,,,0.00,650.000000,,2013-06-13 22:02:00,
2013-06-13 16:11:00,76.0,55.0,-100.00,East,97,6.0,8.0,49,0.00,,,0.00,650.000000,,2013-06-13 22:11:00,
2013-06-13 16:22:00,76.0,55.0,-100.00,East,97,6.0,8.0,49,0.00,,,0.00,650.000000,,2013-06-13 22:22:00,
2013-06-13 16:52:00,73.0,56.0,-100.00,SSE,147,2.0,9.0,55,0.00,,,0.00,330.000000,,2013-06-13 22:52:00,
2013-06-13 17:02:00,73.0,56.0,-100.00,SSE,147,2.0,9.0,55,0.00,,,0.00,330.000000,,2013-06-13 23:02:00,
2013-06-13 17:11:00,73.0,56.0,-100.00,SSE,147,2.0,9.0,55,0.00,,,0.00,330.000000,,2013-06-13 23:11:00,
2013-06-13 17:22:00,73.0,56.0,-100.00,SSE,147,2.0,9.0,55,0.00,,,0.00,330.000000,,2013-06-13 23:22:00,
2013-06-13 17:52:00,82.0,52.0,-100.00,East,96,5.0,8.0,36,0.00,,,-99.99,548.000000,,2013-06-13 23:52:00,
2013-06-13 18:01:00,82.0,52.0,-100.00,East,96,5.0,8.0,36,0.00,,,-99.99,548.000000,,2013-06-14 00:01:00,
2013-06-13 18:11:00,82.0,52.0,-100.00,East,96,5.0,8.0,36,0.00,,,-99.99,548.000000,,2013-06-14 00:11:00,
2013-06-13 18:22:00,82.0,52.0,-100.00,East,96,5.0,8.0,36,0.00,,,-99.99,548.000000,,2013-06-14 00:22:00,
2013-06-13 18:53:00,74.0,53.0,-100.00,NE,41,0.0,10.0,48,0.00,,,0.00,207.000000,,2013-06-14 00:53:00,
2013-06-13 19:01:00,74.0,53.0,-100.00,NE,41,0.0,10.0,48,0.00,,,0.00,207.000000,,2013-06-14 01:01:00,
2013-06-13 19:11:00,74.0,53.0,-100.00,NE,41,0.0,10.0,48,0.00,,,0.00,207.000000,,2013-06-14 01:11:00,
2013-06-13 19:22:00,74.0,53.0,-100.00,NE,41,0.0,10.0,48,0.00,,,0.00,207.000000,,2013-06-14 01:22:00,
2013-06-13 19:52:00,72.0,54.0,-100.00,NNE,14,1.0,8.0,53,0.00,,,-99.99,59.000000,,2013-06-14 01:52:00,
2013-06-13 20:02:00,72.0,54.0,-100.00,NNE,14,1.0,8.0,53,0.00,,,-99.99,59.000000,,2013-06-14 02:02:00,
2013-06-13 20:11:00,72.0,54.0,-100.00,NNE,14,1.0,8.0,53,0.00,,,-99.99,59.000000,,2013-06-14 02:11:00,
2013-06-13 20:22:00,72.0,54.0,-100.00,NNE,14,1.0,8.0,53,0.00,,,-99.99,59.000000,,2013-06-14 02:22:00,
2013-06-13 20:53:00,66.0,51.0,-100.00,WNW,293,3.0,6.0,59,0.00,,,0.00,38.000000,,2013-06-14 02:53:00,
2013-06-13 21:02:00,66.0,51.0,-100.00,WNW,293,3.0,6.0,59,0.00,,,0.00,38.000000,,2013-06-14 03:02:00,
2013-06-13 21:11:00,66.0,51.0,-100.00,WNW,293,3.0,6.0,59,0.00,,,0.00,38.000000,,2013-06-14 03:11:00,
2013-06-13 21:22:00,66.0,51.0,-100.00,WNW,293,3.0,6.0,59,0.00,,,0.00,38.000000,,2013-06-14 03:22:00,
2013-06-13 21:53:00,65.0,47.0,-100.00,WNW,287,4.0,8.0,53,0.00,,,0.00,6.000000,,2013-06-14 03:53:00,
2013-06-13 22:01:00,65.0,47.0,-100.00,WNW,287,4.0,8.0,53,0.00,,,0.00,6.000000,,2013-06-14 04:01:00,
2013-06-13 22:12:00,65.0,47.0,-100.00,WNW,287,4.0,8.0,53,0.00,,,0.00,6.000000,,2013-06-14 04:12:00,
2013-06-13 22:22:00,65.0,47.0,-100.00,WNW,287,4.0,8.0,53,0.00,,,0.00,6.000000,,2013-06-14 04:22:00,
2013-06-13 22:53:00,64.0,45.0,-100.00,West,272,5.0,11.0,50,0.00,,,0.00,1.000000,,2013-06-14 04:53:00,
2013-06-13 23:02:00,64.0,45.0,-100.00,West,272,5.0,11.0,50,0.00,,,0.00,1.000000,,2013-06-14 05:02:00,
2013-06-13 23:11:00,64.0,45.0,-100.00,West,272,5.0,11.0,50,0.00,,,0.00,1.000000,,2013-06-14 05:11:00,
2013-06-13 23:22:00,64.0,45.0,-100.00,West,272,5.0,11.0,50,0.00,,,0.00,1.000000,,2013-06-14 05:22:00,
2013-06-13 23:52:00,63.0,44.0,-100.00,West,279,6.0,13.0,50,0.00,,,0.00,1.000000,,2013-06-14 05:52:00,